sensor_id;sensor_type;location;lat;lon;timestamp;pressure;altitude;pressure_sealevel;temperature;humidity
45789;BME280;31492;54.856;26.318;2023-03-17T00:03:56;1031.8;;;-1;63.3
45789;BME280;31492;54.856;26.318;2023-03-17T00:08:50;1031.9;;;-1;63.3
45789;BME280;31492;54.856;26.318;2023-03-17T00:13:45;1032;;;-1.1;63.4
45789;BME280;31492;54.856;26.318;2023-03-17T00:18:31;1032.1;;;-1.1;63.4
45789;BME280;31492;54.856;26.318;2023-03-17T00:23:37;1032.1;;;-1.2;63.5
45789;BME280;31492;54.856;26.318;2023-03-17T00:28:43;1032.1;;;-1.3;63.8
45789;BME280;31492;54.856;26.318;2023-03-17T00:33:31;1032.2;;;-1.3;63.7
45789;BME280;31492;54.856;26.318;2023-03-17T00:38:31;1032.3;;;-1.3;63.4
45789;BME280;31492;54.856;26.318;2023-03-17T00:43:31;1032.3;;;-1.3;63.5
45789;BME280;31492;54.856;26.318;2023-03-17T00:48:59;1032.3;;;-1.2;63.1
45789;BME280;31492;54.856;26.318;2023-03-17T00:53:31;1032.3;;;-1.3;63.3
45789;BME280;31492;54.856;26.318;2023-03-17T00:58:31;1032.3;;;-1.4;62.9
45789;BME280;31492;54.856;26.318;2023-03-17T01:03:31;1032.3;;;-1.3;62.8
45789;BME280;31492;54.856;26.318;2023-03-17T01:08:31;1032.4;;;-1.4;63.3
45789;BME280;31492;54.856;26.318;2023-03-17T01:13:31;1032.5;;;-1.5;63.7
45789;BME280;31492;54.856;26.318;2023-03-17T01:18:57;1032.5;;;-1.5;64.2
45789;BME280;31492;54.856;26.318;2023-03-17T01:24:13;1032.5;;;-1.6;64.2
45789;BME280;31492;54.856;26.318;2023-03-17T01:28:59;1032.5;;;-1.6;64.1
45789;BME280;31492;54.856;26.318;2023-03-17T01:33:31;1032.5;;;-1.6;63.7
45789;BME280;31492;54.856;26.318;2023-03-17T01:38:45;1032.5;;;-1.6;63.6
45789;BME280;31492;54.856;26.318;2023-03-17T01:43:31;1032.5;;;-1.7;63.7
45789;BME280;31492;54.856;26.318;2023-03-17T01:48:33;1032.5;;;-1.7;64.2
45789;BME280;31492;54.856;26.318;2023-03-17T01:53:43;1032.5;;;-1.8;64.7
45789;BME280;31492;54.856;26.318;2023-03-17T01:58:45;1032.5;;;-1.9;64.7
45789;BME280;31492;54.856;26.318;2023-03-17T02:03:37;1032.5;;;-1.9;64.8
45789;BME280;31492;54.856;26.318;2023-03-17T02:09:09;1032.5;;;-2;65
45789;BME280;31492;54.856;26.318;2023-03-17T02:13:45;1032.6;;;-2.1;65.1
45789;BME280;31492;54.856;26.318;2023-03-17T02:18:53;1032.7;;;-2.1;64.9
45789;BME280;31492;54.856;26.318;2023-03-17T02:23:45;1032.8;;;-2.1;65.2
45789;BME280;31492;54.856;26.318;2023-03-17T02:28:31;1032.8;;;-2;64.9
45789;BME280;31492;54.856;26.318;2023-03-17T02:33:55;1032.9;;;-2;64.9
45789;BME280;31492;54.856;26.318;2023-03-17T02:38:45;1032.9;;;-2;64.7
45789;BME280;31492;54.856;26.318;2023-03-17T02:43:37;1033;;;-2;64.4
45789;BME280;31492;54.856;26.318;2023-03-17T02:48:39;1033;;;-2.1;64.8
45789;BME280;31492;54.856;26.318;2023-03-17T02:53:57;1033;;;-2.2;65.2
45789;BME280;31492;54.856;26.318;2023-03-17T02:59:07;1033.1;;;-2.2;65.2
45789;BME280;31492;54.856;26.318;2023-03-17T03:03:37;1033.1;;;-2.2;65.2
45789;BME280;31492;54.856;26.318;2023-03-17T03:08:31;1033.1;;;-2.3;65.5
45789;BME280;31492;54.856;26.318;2023-03-17T03:13:51;1033.1;;;-2.3;65.3
45789;BME280;31492;54.856;26.318;2023-03-17T03:18:43;1033.1;;;-2.3;65.3
45789;BME280;31492;54.856;26.318;2023-03-17T03:23:45;1033.2;;;-2.4;65.2
45789;BME280;31492;54.856;26.318;2023-03-17T03:28:47;1033.2;;;-2.4;64.9
45789;BME280;31492;54.856;26.318;2023-03-17T03:33:31;1033.2;;;-2.3;65
45789;BME280;31492;54.856;26.318;2023-03-17T03:38:31;1033.2;;;-2.4;65
45789;BME280;31492;54.856;26.318;2023-03-17T03:43:31;1033.2;;;-2.5;65.1
45789;BME280;31492;54.856;26.318;2023-03-17T03:48:31;1033.2;;;-2.5;64.8
45789;BME280;31492;54.856;26.318;2023-03-17T03:53:45;1033.3;;;-2.5;64.7
45789;BME280;31492;54.856;26.318;2023-03-17T03:58:37;1033.4;;;-2.6;65
45789;BME280;31492;54.856;26.318;2023-03-17T04:03:45;1033.4;;;-2.6;64.6
45789;BME280;31492;54.856;26.318;2023-03-17T04:08:45;1033.5;;;-2.5;64.7
45789;BME280;31492;54.856;26.318;2023-03-17T04:14:05;1033.5;;;-2.7;65.3
45789;BME280;31492;54.856;26.318;2023-03-17T04:18:59;1033.5;;;-2.7;65
45789;BME280;31492;54.856;26.318;2023-03-17T04:23:31;1033.5;;;-2.7;64.7
45789;BME280;31492;54.856;26.318;2023-03-17T04:28:31;1033.6;;;-2.6;64.5
45789;BME280;31492;54.856;26.318;2023-03-17T04:33:45;1033.6;;;-2.5;64.6
45789;BME280;31492;54.856;26.318;2023-03-17T04:38:37;1033.7;;;-2.6;64.6
45789;BME280;31492;54.856;26.318;2023-03-17T04:43:55;1033.7;;;-2.6;64.6
45789;BME280;31492;54.856;26.318;2023-03-17T04:48:31;1033.7;;;-2.6;64.4
45789;BME280;31492;54.856;26.318;2023-03-17T04:53:37;1033.8;;;-2.6;64.7
45789;BME280;31492;54.856;26.318;2023-03-17T04:58:41;1033.9;;;-2.6;64.6
45789;BME280;31492;54.856;26.318;2023-03-17T05:03:45;1034;;;-2.6;64.5
45789;BME280;31492;54.856;26.318;2023-03-17T05:08:37;1034;;;-2.5;64.5
45789;BME280;31492;54.856;26.318;2023-03-17T05:13:45;1034.1;;;-2.4;64.8
45789;BME280;31492;54.856;26.318;2023-03-17T05:18:45;1034.2;;;-2.3;64.3
45789;BME280;31492;54.856;26.318;2023-03-17T05:24:21;1034.3;;;-2.2;64
45789;BME280;31492;54.856;26.318;2023-03-17T05:28:45;1034.3;;;-2;63.8
45789;BME280;31492;54.856;26.318;2023-03-17T05:33:31;1034.4;;;-1.9;63.7
45789;BME280;31492;54.856;26.318;2023-03-17T05:38:37;1034.5;;;-1.9;63.4
45789;BME280;31492;54.856;26.318;2023-03-17T05:43:45;1034.5;;;-1.8;63.2
45789;BME280;31492;54.856;26.318;2023-03-17T05:48:31;1034.5;;;-1.7;63.1
45789;BME280;31492;54.856;26.318;2023-03-17T05:53:47;1034.5;;;-1.6;62.9
45789;BME280;31492;54.856;26.318;2023-03-17T05:58:45;1034.6;;;-1.6;62.8
45789;BME280;31492;54.856;26.318;2023-03-17T06:03:45;1034.6;;;-1.5;62.9
45789;BME280;31492;54.856;26.318;2023-03-17T06:08:49;1034.6;;;-1.4;62.4
45789;BME280;31492;54.856;26.318;2023-03-17T06:13:31;1034.6;;;-1.3;62.3
45789;BME280;31492;54.856;26.318;2023-03-17T06:18:37;1034.6;;;-1.2;61.8
45789;BME280;31492;54.856;26.318;2023-03-17T06:23:39;1034.7;;;-1.1;62.5
45789;BME280;31492;54.856;26.318;2023-03-17T06:28:45;1034.7;;;-1.1;63.3
45789;BME280;31492;54.856;26.318;2023-03-17T06:33:53;1034.8;;;-0.9;63.3
45789;BME280;31492;54.856;26.318;2023-03-17T06:38:41;1034.8;;;-0.8;63.3
45789;BME280;31492;54.856;26.318;2023-03-17T06:43:51;1034.8;;;-0.7;63
45789;BME280;31492;54.856;26.318;2023-03-17T06:48:31;1034.8;;;-0.5;63.3
45789;BME280;31492;54.856;26.318;2023-03-17T06:53:31;1034.9;;;-0.4;63.5
45789;BME280;31492;54.856;26.318;2023-03-17T06:59:01;1034.9;;;-0.2;64.2
45789;BME280;31492;54.856;26.318;2023-03-17T07:03:45;1034.9;;;-0.1;64.6
45789;BME280;31492;54.856;26.318;2023-03-17T07:08:51;1035;;;0.1;65.6
45789;BME280;31492;54.856;26.318;2023-03-17T07:13:47;1035;;;0.4;65.4
45789;BME280;31492;54.856;26.318;2023-03-17T07:18:53;1035;;;0.7;65
45789;BME280;31492;54.856;26.318;2023-03-17T07:23:47;1035;;;1.3;65.4
45789;BME280;31492;54.856;26.318;2023-03-17T07:28:51;1035;;;2;64.4
45789;BME280;31492;54.856;26.318;2023-03-17T07:33:49;1035;;;3.2;63.4
45789;BME280;31492;54.856;26.318;2023-03-17T07:38:31;1035;;;4.1;63
45789;BME280;31492;54.856;26.318;2023-03-17T07:43:49;1035.1;;;5;61.5
45789;BME280;31492;54.856;26.318;2023-03-17T07:48:31;1035;;;5.9;59.7
45789;BME280;31492;54.856;26.318;2023-03-17T07:54:01;1035;;;6.8;56.5
45789;BME280;31492;54.856;26.318;2023-03-17T07:58:37;1035;;;7.5;53.8
45789;BME280;31492;54.856;26.318;2023-03-17T08:04:23;1035;;;8.3;52.8
45789;BME280;31492;54.856;26.318;2023-03-17T08:09:01;1035;;;8.9;51.7
45789;BME280;31492;54.856;26.318;2023-03-17T08:13:51;1035;;;9.6;50.1
45789;BME280;31492;54.856;26.318;2023-03-17T08:18:31;1035.1;;;9.9;47.9
45789;BME280;31492;54.856;26.318;2023-03-17T08:23:57;1035.1;;;10.5;46.3
45789;BME280;31492;54.856;26.318;2023-03-17T08:28:37;1035;;;10.8;43.9
45789;BME280;31492;54.856;26.318;2023-03-17T08:33:53;1035;;;11.2;43.8
45789;BME280;31492;54.856;26.318;2023-03-17T08:38:45;1035;;;11.7;42.5
45789;BME280;31492;54.856;26.318;2023-03-17T08:43:31;1035.1;;;12;40.4
45789;BME280;31492;54.856;26.318;2023-03-17T08:48:47;1035.1;;;12.1;38.3
45789;BME280;31492;54.856;26.318;2023-03-17T08:53:45;1035.1;;;12.5;38.5
45789;BME280;31492;54.856;26.318;2023-03-17T08:58:49;1035.1;;;12.7;37.6
45789;BME280;31492;54.856;26.318;2023-03-17T09:03:47;1035.1;;;13.3;38.5
45789;BME280;31492;54.856;26.318;2023-03-17T09:08:31;1035.1;;;13.9;37.9
45789;BME280;31492;54.856;26.318;2023-03-17T09:13:31;1035.1;;;14.1;36.4
45789;BME280;31492;54.856;26.318;2023-03-17T09:18:47;1035.1;;;14.3;35.6
45789;BME280;31492;54.856;26.318;2023-03-17T09:23:53;1035.1;;;14.7;35.2
45789;BME280;31492;54.856;26.318;2023-03-17T09:28:45;1035.1;;;15;33
45789;BME280;31492;54.856;26.318;2023-03-17T09:33:31;1035.1;;;14.8;32.5
45789;BME280;31492;54.856;26.318;2023-03-17T09:38:37;1035.2;;;14.6;29.4
45789;BME280;31492;54.856;26.318;2023-03-17T09:44:00;1035.2;;;14.7;30.3
45789;BME280;31492;54.856;26.318;2023-03-17T09:48:52;1035.2;;;14.8;29.7
45789;BME280;31492;54.856;26.318;2023-03-17T09:53:32;1035.2;;;15;30.4
45789;BME280;31492;54.856;26.318;2023-03-17T09:58:50;1035.2;;;15.3;30.6
45789;BME280;31492;54.856;26.318;2023-03-17T10:03:31;1035.1;;;15.1;27.8
45789;BME280;31492;54.856;26.318;2023-03-17T10:08:46;1035.1;;;15.1;27.9
45789;BME280;31492;54.856;26.318;2023-03-17T10:13:48;1035.1;;;15.2;28.6
45789;BME280;31492;54.856;26.318;2023-03-17T10:18:32;1035.1;;;15.4;27.5
45789;BME280;31492;54.856;26.318;2023-03-17T10:23:32;1035.1;;;15.7;28.7
45789;BME280;31492;54.856;26.318;2023-03-17T10:28:31;1035;;;16.1;27.9
45789;BME280;31492;54.856;26.318;2023-03-17T10:33:45;1035;;;16.2;28
45789;BME280;31492;54.856;26.318;2023-03-17T10:38:31;1035;;;16.4;27.9
45789;BME280;31492;54.856;26.318;2023-03-17T10:43:47;1034.9;;;16.5;28.1
45789;BME280;31492;54.856;26.318;2023-03-17T10:48:48;1034.9;;;16.8;27.7
45789;BME280;31492;54.856;26.318;2023-03-17T10:53:31;1035;;;16.9;27.2
45789;BME280;31492;54.856;26.318;2023-03-17T10:58:47;1034.9;;;16.8;26.8
45789;BME280;31492;54.856;26.318;2023-03-17T11:03:51;1034.8;;;16.8;27.3
45789;BME280;31492;54.856;26.318;2023-03-17T11:09:04;1034.8;;;16.9;26.7
45789;BME280;31492;54.856;26.318;2023-03-17T11:13:47;1034.7;;;16.9;25
45789;BME280;31492;54.856;26.318;2023-03-17T11:18:37;1034.7;;;16.8;26
45789;BME280;31492;54.856;26.318;2023-03-17T11:23:37;1034.6;;;16.9;24.9
45789;BME280;31492;54.856;26.318;2023-03-17T11:28:32;1034.6;;;16.7;24.9
45789;BME280;31492;54.856;26.318;2023-03-17T11:33:53;1034.6;;;16.7;25
45789;BME280;31492;54.856;26.318;2023-03-17T11:38:58;1034.5;;;17;24.5
45789;BME280;31492;54.856;26.318;2023-03-17T11:43:48;1034.5;;;16.7;24.1
45789;BME280;31492;54.856;26.318;2023-03-17T11:48:39;1034.5;;;16.6;25.2
45789;BME280;31492;54.856;26.318;2023-03-17T11:53:49;1034.5;;;16.3;23.8
45789;BME280;31492;54.856;26.318;2023-03-17T11:58:45;1034.4;;;15.9;25.2
45789;BME280;31492;54.856;26.318;2023-03-17T12:04:10;1034.4;;;15.8;26
45789;BME280;31492;54.856;26.318;2023-03-17T12:08:48;1034.4;;;15.9;26.4
45789;BME280;31492;54.856;26.318;2023-03-17T12:14:02;1034.5;;;15.7;25.4
45789;BME280;31492;54.856;26.318;2023-03-17T12:18:32;1034.5;;;15.3;25.7
45789;BME280;31492;54.856;26.318;2023-03-17T12:23:47;1034.5;;;15.2;25.5
45789;BME280;31492;54.856;26.318;2023-03-17T12:28:47;1034.4;;;15.1;26.2
45789;BME280;31492;54.856;26.318;2023-03-17T12:33:58;1034.3;;;15.2;26.8
45789;BME280;31492;54.856;26.318;2023-03-17T12:39:16;1034.3;;;15.1;26.8
45789;BME280;31492;54.856;26.318;2023-03-17T12:43:34;1034.2;;;14.9;27
45789;BME280;31492;54.856;26.318;2023-03-17T12:48:42;1034.2;;;14.6;25.9
45789;BME280;31492;54.856;26.318;2023-03-17T12:53:31;1034.3;;;14.3;25.8
45789;BME280;31492;54.856;26.318;2023-03-17T12:58:31;1034.3;;;14.1;25.7
45789;BME280;31492;54.856;26.318;2023-03-17T13:03:45;1034.3;;;13.6;26.1
45789;BME280;31492;54.856;26.318;2023-03-17T13:08:32;1034.3;;;13.2;26.8
45789;BME280;31492;54.856;26.318;2023-03-17T13:13:39;1034.3;;;12.9;26.7
45789;BME280;31492;54.856;26.318;2023-03-17T13:18:46;1034.3;;;12.8;27.5
45789;BME280;31492;54.856;26.318;2023-03-17T13:23:46;1034.3;;;12.6;27.9
45789;BME280;31492;54.856;26.318;2023-03-17T13:28:39;1034.3;;;12.3;28.2
45789;BME280;31492;54.856;26.318;2023-03-17T13:33:54;1034.3;;;11.8;28.8
45789;BME280;31492;54.856;26.318;2023-03-17T13:38:42;1034.4;;;11.3;29.2
45789;BME280;31492;54.856;26.318;2023-03-17T13:43:42;1034.3;;;10.8;29
45789;BME280;31492;54.856;26.318;2023-03-17T13:48:31;1034.3;;;10.5;29.5
45789;BME280;31492;54.856;26.318;2023-03-17T13:53:46;1034.3;;;10.2;29.1
45789;BME280;31492;54.856;26.318;2023-03-17T13:59:03;1034.3;;;9.9;29.4
45789;BME280;31492;54.856;26.318;2023-03-17T14:03:33;1034.3;;;9.7;29.8
45789;BME280;31492;54.856;26.318;2023-03-17T14:08:47;1034.2;;;9.6;30.3
45789;BME280;31492;54.856;26.318;2023-03-17T14:13:33;1034.1;;;9.6;30.1
45789;BME280;31492;54.856;26.318;2023-03-17T14:18:47;1034.1;;;9.4;30.4
45789;BME280;31492;54.856;26.318;2023-03-17T14:23:31;1034;;;9.4;30.8
45789;BME280;31492;54.856;26.318;2023-03-17T14:28:46;1034;;;9.3;31
45789;BME280;31492;54.856;26.318;2023-03-17T14:33:31;1034;;;9.2;31.8
45789;BME280;31492;54.856;26.318;2023-03-17T14:38:32;1034;;;9.1;31.5
45789;BME280;31492;54.856;26.318;2023-03-17T14:43:31;1034;;;9;31.7
45789;BME280;31492;54.856;26.318;2023-03-17T14:48:32;1034;;;8.8;32.3
45789;BME280;31492;54.856;26.318;2023-03-17T14:53:31;1034;;;8.8;32.9
45789;BME280;31492;54.856;26.318;2023-03-17T14:58:47;1034;;;8.8;32.8
45789;BME280;31492;54.856;26.318;2023-03-17T15:04:21;1034;;;8.7;33.1
45789;BME280;31492;54.856;26.318;2023-03-17T15:08:38;1034;;;8.6;33
45789;BME280;31492;54.856;26.318;2023-03-17T15:14:02;1034;;;8.4;33.6
45789;BME280;31492;54.856;26.318;2023-03-17T15:18:31;1034;;;8.3;33.5
45789;BME280;31492;54.856;26.318;2023-03-17T15:23:41;1034;;;8.2;33.5
45789;BME280;31492;54.856;26.318;2023-03-17T15:28:31;1034;;;8.1;34.1
45789;BME280;31492;54.856;26.318;2023-03-17T15:33:53;1034;;;8;34
45789;BME280;31492;54.856;26.318;2023-03-17T15:38:43;1034;;;7.9;34.3
45789;BME280;31492;54.856;26.318;2023-03-17T15:43:31;1034;;;7.8;34.6
45789;BME280;31492;54.856;26.318;2023-03-17T15:48:41;1034;;;7.6;34.9
45789;BME280;31492;54.856;26.318;2023-03-17T15:53:47;1034;;;7.4;35.2
45789;BME280;31492;54.856;26.318;2023-03-17T15:58:31;1034;;;7.2;35.5
45789;BME280;31492;54.856;26.318;2023-03-17T16:03:31;1034;;;7.1;36.1
45789;BME280;31492;54.856;26.318;2023-03-17T16:08:31;1034;;;6.9;36.4
45789;BME280;31492;54.856;26.318;2023-03-17T16:13:43;1034.1;;;6.7;36.6
45789;BME280;31492;54.856;26.318;2023-03-17T16:18:37;1034.1;;;6.5;37
45789;BME280;31492;54.856;26.318;2023-03-17T16:23:43;1034.1;;;6.3;37.4
45789;BME280;31492;54.856;26.318;2023-03-17T16:28:31;1034.2;;;6.1;37.9
45789;BME280;31492;54.856;26.318;2023-03-17T16:33:32;1034.2;;;5.9;38.1
45789;BME280;31492;54.856;26.318;2023-03-17T16:38:32;1034.2;;;5.8;38.5
45789;BME280;31492;54.856;26.318;2023-03-17T16:43:32;1034.2;;;5.6;38.7
45789;BME280;31492;54.856;26.318;2023-03-17T16:48:37;1034.3;;;5.4;38.9
45789;BME280;31492;54.856;26.318;2023-03-17T16:53:31;1034.4;;;5.2;38.9
45789;BME280;31492;54.856;26.318;2023-03-17T16:58:32;1034.5;;;5.1;39.3
45789;BME280;31492;54.856;26.318;2023-03-17T17:03:31;1034.5;;;4.9;40.2
45789;BME280;31492;54.856;26.318;2023-03-17T17:08:31;1034.5;;;4.8;40.2
45789;BME280;31492;54.856;26.318;2023-03-17T17:13:55;1034.5;;;4.7;40.2
45789;BME280;31492;54.856;26.318;2023-03-17T17:19:21;1034.5;;;4.5;40.1
45789;BME280;31492;54.856;26.318;2023-03-17T17:23:53;1034.5;;;4.4;40.5
45789;BME280;31492;54.856;26.318;2023-03-17T17:28:31;1034.5;;;4.2;41.1
45789;BME280;31492;54.856;26.318;2023-03-17T17:33:43;1034.5;;;4;41.5
45789;BME280;31492;54.856;26.318;2023-03-17T17:38:53;1034.5;;;3.9;42.2
45789;BME280;31492;54.856;26.318;2023-03-17T17:43:31;1034.5;;;3.7;43
45789;BME280;31492;54.856;26.318;2023-03-17T17:48:41;1034.5;;;3.6;44.1
45789;BME280;31492;54.856;26.318;2023-03-17T17:53:49;1034.5;;;3.4;43.7
45789;BME280;31492;54.856;26.318;2023-03-17T17:58:37;1034.5;;;3.3;44.1
45789;BME280;31492;54.856;26.318;2023-03-17T18:03:31;1034.5;;;3.3;43.9
45789;BME280;31492;54.856;26.318;2023-03-17T18:08:59;1034.5;;;3.2;44.1
45789;BME280;31492;54.856;26.318;2023-03-17T18:13:49;1034.4;;;3.1;44.4
45789;BME280;31492;54.856;26.318;2023-03-17T18:18:31;1034.4;;;3;44.4
45789;BME280;31492;54.856;26.318;2023-03-17T18:23:43;1034.4;;;3;44.8
45789;BME280;31492;54.856;26.318;2023-03-17T18:28:31;1034.4;;;2.9;44.8
45789;BME280;31492;54.856;26.318;2023-03-17T18:33:31;1034.4;;;2.9;45.4
45789;BME280;31492;54.856;26.318;2023-03-17T18:38:31;1034.5;;;2.9;45.9
45789;BME280;31492;54.856;26.318;2023-03-17T18:43:31;1034.5;;;2.9;45.6
45789;BME280;31492;54.856;26.318;2023-03-17T18:48:59;1034.6;;;2.9;45.4
45789;BME280;31492;54.856;26.318;2023-03-17T18:53:31;1034.6;;;2.9;45.3
45789;BME280;31492;54.856;26.318;2023-03-17T18:58:58;1034.6;;;2.9;45.5
45789;BME280;31492;54.856;26.318;2023-03-17T19:03:31;1034.6;;;2.8;45.6
45789;BME280;31492;54.856;26.318;2023-03-17T19:08:31;1034.6;;;2.8;45.7
45789;BME280;31492;54.856;26.318;2023-03-17T19:13:43;1034.7;;;2.8;45.8
45789;BME280;31492;54.856;26.318;2023-03-17T19:18:59;1034.7;;;2.8;45.8
45789;BME280;31492;54.856;26.318;2023-03-17T19:23:37;1034.7;;;2.8;45.9
45789;BME280;31492;54.856;26.318;2023-03-17T19:28:53;1034.7;;;2.7;46
45789;BME280;31492;54.856;26.318;2023-03-17T19:33:31;1034.7;;;2.6;46.1
45789;BME280;31492;54.856;26.318;2023-03-17T19:38:37;1034.7;;;2.6;46.2
45789;BME280;31492;54.856;26.318;2023-03-17T19:43:31;1034.7;;;2.6;46.3
45789;BME280;31492;54.856;26.318;2023-03-17T19:48:43;1034.8;;;2.5;46.3
45789;BME280;31492;54.856;26.318;2023-03-17T19:53:38;1034.8;;;2.4;46.5
45789;BME280;31492;54.856;26.318;2023-03-17T19:58:59;1034.8;;;2.4;46.5
45789;BME280;31492;54.856;26.318;2023-03-17T20:03:43;1034.8;;;2.4;46.5
45789;BME280;31492;54.856;26.318;2023-03-17T20:08:49;1034.8;;;2.4;46.5
45789;BME280;31492;54.856;26.318;2023-03-17T20:13:47;1034.8;;;2.4;46.5
45789;BME280;31492;54.856;26.318;2023-03-17T20:18:59;1034.8;;;2.4;46.5
45789;BME280;31492;54.856;26.318;2023-03-17T20:23:41;1034.8;;;2.4;46.8
45789;BME280;31492;54.856;26.318;2023-03-17T20:28:53;1034.8;;;2.1;48
45789;BME280;31492;54.856;26.318;2023-03-17T20:33:53;1034.8;;;2.1;48
45789;BME280;31492;54.856;26.318;2023-03-17T20:38:55;1034.8;;;2.1;48
45789;BME280;31492;54.856;26.318;2023-03-17T20:43:37;1034.8;;;2;48.2
45789;BME280;31492;54.856;26.318;2023-03-17T20:48:37;1034.8;;;1.9;48.4
45789;BME280;31492;54.856;26.318;2023-03-17T20:53:31;1034.8;;;1.9;48.4
45789;BME280;31492;54.856;26.318;2023-03-17T20:58:49;1034.9;;;2;48.2
45789;BME280;31492;54.856;26.318;2023-03-17T21:03:49;1034.9;;;2;48
45789;BME280;31492;54.856;26.318;2023-03-17T21:08:31;1035;;;2;48.2
45789;BME280;31492;54.856;26.318;2023-03-17T21:13:43;1035;;;2;48.2
45789;BME280;31492;54.856;26.318;2023-03-17T21:18:37;1035;;;1.9;49.6
45789;BME280;31492;54.856;26.318;2023-03-17T21:23:31;1035.1;;;1.9;50.4
45789;BME280;31492;54.856;26.318;2023-03-17T21:28:31;1035.2;;;1.9;50.4
45789;BME280;31492;54.856;26.318;2023-03-17T21:33:37;1035.2;;;1.8;50.1
45789;BME280;31492;54.856;26.318;2023-03-17T21:38:47;1035.2;;;1.8;50
45789;BME280;31492;54.856;26.318;2023-03-17T21:43:43;1035.1;;;1.8;50.2
45789;BME280;31492;54.856;26.318;2023-03-17T21:48:59;1035.1;;;1.8;50.1
45789;BME280;31492;54.856;26.318;2023-03-17T21:53:43;1035.1;;;1.8;49.9
45789;BME280;31492;54.856;26.318;2023-03-17T21:58:31;1035.1;;;1.8;49.4
45789;BME280;31492;54.856;26.318;2023-03-17T22:03:41;1035.1;;;1.9;48.7
45789;BME280;31492;54.856;26.318;2023-03-17T22:08:31;1035.1;;;1.9;49.2
45789;BME280;31492;54.856;26.318;2023-03-17T22:13:49;1035.1;;;1.8;49.2
45789;BME280;31492;54.856;26.318;2023-03-17T22:18:31;1035;;;1.8;49.3
45789;BME280;31492;54.856;26.318;2023-03-17T22:23:31;1035.1;;;1.8;48.9
45789;BME280;31492;54.856;26.318;2023-03-17T22:28:31;1035.1;;;1.8;48.8
45789;BME280;31492;54.856;26.318;2023-03-17T22:33:41;1035.1;;;1.8;48.8
45789;BME280;31492;54.856;26.318;2023-03-17T22:38:43;1035;;;1.8;48.6
45789;BME280;31492;54.856;26.318;2023-03-17T22:43:31;1035;;;1.8;48.5
45789;BME280;31492;54.856;26.318;2023-03-17T22:48:31;1035;;;1.9;48.4
45789;BME280;31492;54.856;26.318;2023-03-17T22:53:49;1035;;;1.9;48.2
45789;BME280;31492;54.856;26.318;2023-03-17T22:58:49;1035;;;2;48.1
45789;BME280;31492;54.856;26.318;2023-03-17T23:03:31;1035;;;2;48.2
45789;BME280;31492;54.856;26.318;2023-03-17T23:08:43;1035.1;;;2;47.8
45789;BME280;31492;54.856;26.318;2023-03-17T23:13:59;1035.1;;;2;48.1
45789;BME280;31492;54.856;26.318;2023-03-17T23:18:59;1035.1;;;2;48.1
45789;BME280;31492;54.856;26.318;2023-03-17T23:23:59;1035.1;;;2.1;48.1
45789;BME280;31492;54.856;26.318;2023-03-17T23:28:41;1035.1;;;2;48.2
45789;BME280;31492;54.856;26.318;2023-03-17T23:33:37;1035.1;;;1.9;48.4
45789;BME280;31492;54.856;26.318;2023-03-17T23:38:37;1035.1;;;1.9;48.2
45789;BME280;31492;54.856;26.318;2023-03-17T23:43:31;1035.1;;;1.9;48.2
45789;BME280;31492;54.856;26.318;2023-03-17T23:48:45;1035;;;1.8;48.5
45789;BME280;31492;54.856;26.318;2023-03-17T23:53:49;1035;;;1.8;48.8
45789;BME280;31492;54.856;26.318;2023-03-17T23:58:31;1034.9;;;1.8;48.9
